createdAt,value
2022-11-05T00:00:07.477Z,7.40
2022-11-05T00:05:32.888Z,7.40
2022-11-05T00:10:37.039Z,7.40
2022-11-05T00:15:57.554Z,7.40
2022-11-05T00:20:59.383Z,7.50
2022-11-05T00:26:03.933Z,7.40
2022-11-05T00:31:09.893Z,7.50
2022-11-05T00:36:11.810Z,7.60
2022-11-05T00:41:13.650Z,7.70
2022-11-05T00:46:15.463Z,7.80
2022-11-05T00:51:17.290Z,7.80
2022-11-05T00:56:19.110Z,7.80
2022-11-05T01:01:21.012Z,7.80
2022-11-05T01:06:24.077Z,7.90
2022-11-05T01:11:35.181Z,7.90
2022-11-05T01:16:38.013Z,7.90
2022-11-05T01:21:39.959Z,8.00
2022-11-05T01:26:41.810Z,8.00
2022-11-05T01:31:43.637Z,8.00
2022-11-05T01:36:45.591Z,8.00
2022-11-05T01:41:47.490Z,8.00
2022-11-05T01:46:50.323Z,8.00
2022-11-05T01:51:52.386Z,8.00
2022-11-05T01:56:58.209Z,7.90
2022-11-05T02:02:01.897Z,7.90
2022-11-05T02:07:04.941Z,8.00
2022-11-05T02:12:07.869Z,8.00
2022-11-05T02:17:37.694Z,8.00
2022-11-05T02:22:51.755Z,7.90
2022-11-05T02:28:23.930Z,7.90
2022-11-05T02:33:40.999Z,7.90
2022-11-05T02:38:46.253Z,7.80
2022-11-05T02:43:58.178Z,7.70
2022-11-05T02:49:23.229Z,7.70
2022-11-05T02:55:02.433Z,7.70
2022-11-05T03:00:26.308Z,7.60
2022-11-05T03:05:37.911Z,7.60
2022-11-05T03:10:47.225Z,7.60
2022-11-05T03:16:07.330Z,7.50
2022-11-05T03:21:10.730Z,7.50
2022-11-05T03:26:20.500Z,7.50
2022-11-05T03:31:23.405Z,7.60
2022-11-05T03:36:31.395Z,7.60
2022-11-05T03:41:34.086Z,7.60
2022-11-05T03:46:42.383Z,7.60
2022-11-05T03:52:01.876Z,7.70
2022-11-05T03:57:26.206Z,7.70
2022-11-05T04:02:28.131Z,7.70
2022-11-05T04:07:48.500Z,7.70
2022-11-05T04:13:09.049Z,7.70
2022-11-05T04:18:11.078Z,7.70
2022-11-05T04:23:31.365Z,7.70
2022-11-05T04:28:53.137Z,7.80
2022-11-05T04:33:54.951Z,7.80
2022-11-05T04:38:56.775Z,7.90
2022-11-05T04:43:58.627Z,7.90
2022-11-05T04:49:00.441Z,8.00
2022-11-05T04:54:02.344Z,8.00
2022-11-05T04:59:04.164Z,8.00
2022-11-05T05:04:05.977Z,8.00
2022-11-05T05:09:07.811Z,8.10
2022-11-05T05:14:09.657Z,8.10
2022-11-05T05:19:11.475Z,8.00
2022-11-05T05:24:19.586Z,8.00
2022-11-05T05:29:21.471Z,8.00
2022-11-05T05:34:23.306Z,7.90
2022-11-05T05:39:25.136Z,8.00
2022-11-05T05:44:26.973Z,8.00
2022-11-05T05:49:28.790Z,8.00
2022-11-05T05:54:36.056Z,8.10
2022-11-05T05:59:41.627Z,8.00
2022-11-05T06:04:43.446Z,8.10
2022-11-05T06:09:45.284Z,8.20
2022-11-05T06:14:47.258Z,8.20
2022-11-05T06:19:49.117Z,8.10
2022-11-05T06:24:51.010Z,8.20
2022-11-05T06:29:52.834Z,8.20
2022-11-05T06:34:54.705Z,8.10
2022-11-05T06:39:57.228Z,8.20
2022-11-05T06:44:59.282Z,8.20
2022-11-05T06:50:01.172Z,8.20
2022-11-05T06:55:03.074Z,8.30
2022-11-05T07:00:08.003Z,8.40
2022-11-05T07:05:13.503Z,8.40
2022-11-05T07:10:20.041Z,8.40
2022-11-05T07:15:21.902Z,8.40
2022-11-05T07:20:23.703Z,8.50
2022-11-05T07:25:25.613Z,8.50
2022-11-05T07:30:27.821Z,8.50
2022-11-05T07:35:29.830Z,8.60
2022-11-05T07:40:31.735Z,8.60
2022-11-05T07:45:33.735Z,8.70
2022-11-05T07:50:37.268Z,8.90
2022-11-05T07:55:40.690Z,9.00
2022-11-05T08:00:42.789Z,9.00
2022-11-05T08:05:46.394Z,9.10
2022-11-05T08:10:48.213Z,9.10
2022-11-05T08:15:50.092Z,9.20
2022-11-05T08:20:51.919Z,9.30
2022-11-05T08:25:55.711Z,9.40
2022-11-05T08:30:57.658Z,9.50
2022-11-05T08:36:02.867Z,9.60
2022-11-05T08:41:05.008Z,9.70
2022-11-05T08:46:06.842Z,10.00
2022-11-05T08:51:08.686Z,10.30
2022-11-05T08:56:10.536Z,10.60
2022-11-05T09:01:12.514Z,10.90
2022-11-05T09:06:15.510Z,11.00
2022-11-05T09:11:18.278Z,11.10
2022-11-05T09:16:25.197Z,11.10
2022-11-05T09:21:27.044Z,11.20
2022-11-05T09:26:28.956Z,11.20
2022-11-05T09:31:30.792Z,11.20
2022-11-05T09:36:32.674Z,11.20
2022-11-05T09:41:37.524Z,11.30
2022-11-05T09:46:49.651Z,11.30
2022-11-05T09:51:53.675Z,11.40
2022-11-05T09:56:56.046Z,11.50
2022-11-05T10:02:04.846Z,11.70
2022-11-05T10:07:10.631Z,11.80
2022-11-05T10:12:41.912Z,12.10
2022-11-05T10:17:50.826Z,12.30
2022-11-05T10:23:00.616Z,12.30
2022-11-05T10:28:04.515Z,12.40
2022-11-05T10:33:06.869Z,12.50
2022-11-05T10:38:13.976Z,12.50
2022-11-05T10:43:40.843Z,12.50
2022-11-05T10:48:57.307Z,12.70
2022-11-05T10:54:20.015Z,12.80
2022-11-05T10:59:28.739Z,12.90
2022-11-05T11:04:36.553Z,12.90
2022-11-05T11:09:39.648Z,12.80
2022-11-05T11:14:41.582Z,12.80
2022-11-05T11:19:43.711Z,12.80
2022-11-05T11:24:51.028Z,12.70
2022-11-05T11:30:01.211Z,12.50
2022-11-05T11:35:22.134Z,12.30
2022-11-05T11:40:31.886Z,12.30
2022-11-05T11:45:37.751Z,12.40
2022-11-05T11:50:42.319Z,12.70
2022-11-05T11:56:04.542Z,12.80
2022-11-05T12:01:33.788Z,12.70
2022-11-05T12:06:38.368Z,12.50
2022-11-05T12:11:58.637Z,12.30
2022-11-05T12:17:12.418Z,12.40
2022-11-05T12:22:29.417Z,12.40
2022-11-05T12:28:03.993Z,12.40
2022-11-05T12:33:45.121Z,12.30
2022-11-05T12:39:19.326Z,12.20
2022-11-05T12:45:04.580Z,12.20
2022-11-05T12:50:27.082Z,12.20
2022-11-05T12:55:35.111Z,12.20
2022-11-05T13:00:37.992Z,12.20
2022-11-05T13:05:51.407Z,12.10
2022-11-05T13:10:59.910Z,12.10
2022-11-05T13:16:10.470Z,12.00
2022-11-05T13:21:12.910Z,12.00
2022-11-05T13:26:31.690Z,12.00
2022-11-05T13:31:40.455Z,12.00
2022-11-05T13:37:17.132Z,12.00
2022-11-05T13:42:35.404Z,12.00
2022-11-05T13:47:43.125Z,11.90
2022-11-05T13:53:13.732Z,11.90
2022-11-05T13:59:00.390Z,11.80
2022-11-05T14:04:02.597Z,11.80
2022-11-05T14:09:10.601Z,11.70
2022-11-05T14:14:22.675Z,11.70
2022-11-05T14:19:30.814Z,11.60
2022-11-05T14:24:43.367Z,11.60
2022-11-05T14:29:49.514Z,11.50
2022-11-05T14:35:04.197Z,11.50
2022-11-05T14:40:21.470Z,11.40
2022-11-05T14:45:29.779Z,11.40
2022-11-05T14:50:42.459Z,11.40
2022-11-05T14:55:47.249Z,11.30
2022-11-05T15:00:51.100Z,11.30
2022-11-05T15:06:26.364Z,11.40
2022-11-05T15:11:38.447Z,11.20
2022-11-05T15:16:47.575Z,11.20
2022-11-05T15:21:53.952Z,11.20
2022-11-05T15:27:06.907Z,11.10
2022-11-05T15:32:18.337Z,11.10
2022-11-05T15:37:25.072Z,11.10
2022-11-05T15:42:27.674Z,11.10
2022-11-05T15:47:31.630Z,11.10
2022-11-05T15:52:45.646Z,11.00
2022-11-05T15:57:51.100Z,10.80
2022-11-05T16:03:02.400Z,10.80
2022-11-05T16:08:05.279Z,10.60
2022-11-05T16:13:33.194Z,10.50
2022-11-05T16:18:40.442Z,10.50
2022-11-05T16:23:52.399Z,10.40
2022-11-05T16:28:54.353Z,10.50
2022-11-05T16:33:57.346Z,10.50
2022-11-05T16:39:28.407Z,10.50
2022-11-05T16:44:40.780Z,10.50
2022-11-05T16:49:48.146Z,10.60
2022-11-05T16:54:50.051Z,10.50
2022-11-05T16:59:55.069Z,10.50
2022-11-05T17:04:59.424Z,10.50
2022-11-05T17:10:01.415Z,10.50
2022-11-05T17:15:09.269Z,10.60
2022-11-05T17:20:44.643Z,10.50
2022-11-05T17:25:53.502Z,10.50
2022-11-05T17:30:56.370Z,10.50
2022-11-05T17:35:58.325Z,10.50
2022-11-05T17:41:09.676Z,10.40
2022-11-05T17:46:14.297Z,10.40
2022-11-05T17:51:21.374Z,10.40
2022-11-05T17:56:32.508Z,10.40
2022-11-05T18:01:43.382Z,10.30
2022-11-05T18:06:45.444Z,10.20
2022-11-05T18:11:47.274Z,10.20
2022-11-05T18:16:49.865Z,10.10
2022-11-05T18:21:51.759Z,10.10
2022-11-05T18:26:53.653Z,10.10
2022-11-05T18:31:55.460Z,10.00
2022-11-05T18:36:57.287Z,10.10
2022-11-05T18:41:59.156Z,10.00
2022-11-05T18:47:01.377Z,10.00
2022-11-05T18:52:03.902Z,10.00
2022-11-05T18:57:05.731Z,10.00
2022-11-05T19:02:08.559Z,9.90
2022-11-05T19:07:11.218Z,9.90
2022-11-05T19:12:13.018Z,9.90
2022-11-05T19:17:14.817Z,9.90
2022-11-05T19:22:16.778Z,9.80
2022-11-05T19:27:18.947Z,9.80
2022-11-05T19:32:21.349Z,9.80
2022-11-05T19:37:36.983Z,9.70
2022-11-05T19:42:44.422Z,9.50
2022-11-05T19:47:46.941Z,9.50
2022-11-05T19:52:50.065Z,9.30
2022-11-05T19:57:53.141Z,9.20
2022-11-05T20:02:55.137Z,9.20
2022-11-05T20:07:57.734Z,9.10
2022-11-05T20:13:18.581Z,9.00
2022-11-05T20:18:21.793Z,9.00
2022-11-05T20:23:24.746Z,8.90
2022-11-05T20:28:32.870Z,8.90
2022-11-05T20:33:45.502Z,8.90
2022-11-05T20:38:54.051Z,8.80
2022-11-05T20:44:00.594Z,8.70
2022-11-05T20:49:03.738Z,8.70
2022-11-05T20:54:10.687Z,8.70
2022-11-05T20:59:13.467Z,8.60
2022-11-05T21:04:15.375Z,8.60
2022-11-05T21:09:17.362Z,8.50
2022-11-05T21:14:19.257Z,8.40
2022-11-05T21:19:23.878Z,8.30
2022-11-05T21:24:25.832Z,8.30
2022-11-05T21:29:28.412Z,8.30
2022-11-05T21:34:38.442Z,8.30
2022-11-05T21:39:40.404Z,8.20
2022-11-05T21:44:42.302Z,8.20
2022-11-05T21:49:45.751Z,8.20
2022-11-05T21:55:12.133Z,8.10
2022-11-05T22:00:14.105Z,8.10
2022-11-05T22:05:15.981Z,8.10
2022-11-05T22:10:17.850Z,8.00
2022-11-05T22:15:19.661Z,8.00
2022-11-05T22:20:21.574Z,7.90
2022-11-05T22:25:23.398Z,7.90
2022-11-05T22:30:25.270Z,7.80
2022-11-05T22:35:27.322Z,7.70
2022-11-05T22:40:29.285Z,7.50
2022-11-05T22:45:31.402Z,7.50
2022-11-05T22:50:33.943Z,7.40
2022-11-05T22:55:39.433Z,7.30
2022-11-05T23:00:41.262Z,7.20
2022-11-05T23:05:43.277Z,7.20
2022-11-05T23:11:03.874Z,7.10
2022-11-05T23:16:24.354Z,7.10
2022-11-05T23:21:46.737Z,7.10
2022-11-05T23:26:51.407Z,7.00
2022-11-05T23:32:12.517Z,7.00
2022-11-05T23:37:33.976Z,7.00
2022-11-05T23:42:57.527Z,7.00
2022-11-05T23:48:26.349Z,7.00
2022-11-05T23:53:31.126Z,7.00
2022-11-05T23:58:33.215Z,7.00
